Time;durP1;ratioP1;P1;durP2;ratioP2;P2;SDS_P1;SDS_P2;PMS_P1;PMS_P2;Temp;Humidity;BMP_temperature;BMP_pressure;BME280_temperature;BME280_humidity;BME280_pressure;Samples;Min_cycle;Max_cycle;Signal;HPM_P1;HPM_P2
2023/03/11 00:01:31;;;;;;;43.63;28.95;;;0.30;99.90;;;;;;5091732;28;20032;-73
2023/03/11 00:03:58;;;;;;;46.33;28.75;;;0.40;99.90;;;;;;5091722;28;20028;-74
2023/03/11 00:06:24;;;;;;;84.03;47.28;;;0.30;99.90;;;;;;5091239;28;20387;-74
2023/03/11 00:08:51;;;;;;;42.50;29.45;;;0.40;99.90;;;;;;5091710;28;20038;-74
2023/03/11 00:11:18;;;;;;;44.45;29.42;;;0.40;99.90;;;;;;5090185;28;20466;-74
2023/03/11 00:13:44;;;;;;;41.80;28.67;;;0.40;99.90;;;;;;5092412;28;20032;-74
2023/03/11 00:16:10;;;;;;;46.60;29.20;;;0.40;99.90;;;;;;5091809;28;20357;-75
2023/03/11 00:18:35;;;;;;;38.33;24.08;;;0.40;99.90;;;;;;5092172;28;20024;-74
2023/03/11 00:21:01;;;;;;;31.83;21.38;;;0.40;99.90;;;;;;5092387;28;20024;-74
2023/03/11 00:23:27;;;;;;;35.17;22.33;;;0.40;99.90;;;;;;5091680;28;20047;-75
2023/03/11 00:25:53;;;;;;;33.75;20.27;;;0.50;99.90;;;;;;5091717;28;20084;-74
2023/03/11 00:28:21;;;;;;;29.38;20.75;;;0.50;99.90;;;;;;5090099;28;20132;-74
2023/03/11 00:30:47;;;;;;;33.22;20.63;;;0.50;99.90;;;;;;5092284;28;20158;-74
2023/03/11 00:33:14;;;;;;;32.80;19.73;;;0.50;99.90;;;;;;5091032;28;20151;-74
2023/03/11 00:35:41;;;;;;;31.45;20.25;;;0.60;99.90;;;;;;5091188;28;20031;-74
2023/03/11 00:38:10;;;;;;;31.08;20.15;;;0.70;99.90;;;;;;5091576;28;20075;-77
2023/03/11 00:40:36;;;;;;;29.45;18.50;;;0.60;99.90;;;;;;5091658;28;20042;-74
2023/03/11 00:43:02;;;;;;;30.55;19.10;;;0.70;99.90;;;;;;5091451;28;20020;-74
2023/03/11 00:45:29;;;;;;;27.05;18.42;;;0.70;99.90;;;;;;5091094;28;20047;-73
2023/03/11 00:47:55;;;;;;;28.02;18.40;;;0.70;99.90;;;;;;5091738;28;20024;-73
2023/03/11 00:50:25;;;;;;;32.20;19.90;;;0.80;99.90;;;;;;5091154;28;20028;-73
2023/03/11 00:52:51;;;;;;;29.95;17.98;;;0.80;99.90;;;;;;5091415;28;20115;-73
2023/03/11 00:55:21;;;;;;;31.15;20.13;;;0.80;99.90;;;;;;5090857;28;20065;-73
2023/03/11 00:57:50;;;;;;;38.22;24.88;;;0.80;99.90;;;;;;5091387;28;20112;-73
2023/03/11 01:00:17;;;;;;;36.28;22.83;;;0.90;99.90;;;;;;5090455;28;20044;-73
2023/03/11 01:02:43;;;;;;;34.95;21.33;;;0.90;99.90;;;;;;5091607;28;20039;-74
2023/03/11 01:05:10;;;;;;;34.60;23.65;;;0.90;99.90;;;;;;5090967;28;20039;-76
2023/03/11 01:07:36;;;;;;;32.25;20.83;;;0.90;99.90;;;;;;5091125;28;20039;-74
2023/03/11 01:10:03;;;;;;;36.47;23.58;;;1.00;99.90;;;;;;5091078;28;20032;-74
2023/03/11 01:12:28;;;;;;;31.70;20.85;;;1.00;99.90;;;;;;5090315;28;20080;-73
2023/03/11 01:14:54;;;;;;;26.50;17.73;;;1.00;99.90;;;;;;5090958;28;20112;-74
2023/03/11 01:17:21;;;;;;;30.98;19.65;;;1.00;99.90;;;;;;5090835;28;20028;-75
2023/03/11 01:19:47;;;;;;;28.92;18.15;;;1.00;99.90;;;;;;5091108;28;20116;-74
2023/03/11 01:22:13;;;;;;;27.98;19.05;;;1.00;99.90;;;;;;5090434;28;20050;-75
2023/03/11 01:24:39;;;;;;;27.42;18.13;;;1.00;99.90;;;;;;5090842;28;20024;-74
2023/03/11 01:27:04;;;;;;;28.92;18.40;;;0.90;99.90;;;;;;5091107;28;20065;-74
2023/03/11 01:29:30;;;;;;;25.92;16.45;;;1.00;99.90;;;;;;5089999;28;20476;-74
2023/03/11 01:31:56;;;;;;;28.75;18.17;;;1.00;99.90;;;;;;5090901;28;20115;-74
2023/03/11 01:34:22;;;;;;;28.13;17.23;;;1.00;99.90;;;;;;5090217;28;20063;-75
2023/03/11 01:36:47;;;;;;;27.55;17.70;;;1.00;99.90;;;;;;5090753;28;20042;-75
2023/03/11 01:39:13;;;;;;;28.55;17.80;;;1.00;99.90;;;;;;5088727;28;20024;-76
2023/03/11 01:41:39;;;;;;;29.85;18.55;;;1.00;99.90;;;;;;5090690;28;20039;-74
2023/03/11 01:44:04;;;;;;;28.20;17.48;;;1.00;99.90;;;;;;5090396;28;20028;-74
2023/03/11 01:46:53;;;;;;;28.50;18.50;;;1.10;99.90;;;;;;5090411;28;20104;-74
2023/03/11 01:49:20;;;;;;;31.15;19.05;;;1.10;99.90;;;;;;5087871;28;20495;-75
2023/03/11 01:51:50;;;;;;;27.00;18.20;;;1.10;99.90;;;;;;5090694;28;20039;-74
2023/03/11 01:54:38;;;;;;;28.45;16.67;;;1.10;99.90;;;;;;5089996;28;20473;-74
2023/03/11 01:57:11;;;;;;;29.42;18.85;;;1.00;99.90;;;;;;5090973;28;20035;-72
2023/03/11 01:59:43;;;;;;;35.28;21.38;;;1.00;99.90;;;;;;5090720;28;20024;-73
2023/03/11 02:02:21;;;;;;;27.50;18.50;;;1.00;99.90;;;;;;5091089;28;20024;-74
2023/03/11 02:04:48;;;;;;;32.05;20.00;;;1.00;99.90;;;;;;5090795;28;20036;-74
2023/03/11 02:07:14;;;;;;;25.83;18.40;;;1.00;99.90;;;;;;5090008;28;20066;-78
2023/03/11 02:09:40;;;;;;;28.73;18.52;;;1.00;99.90;;;;;;5090454;28;20051;-75
2023/03/11 02:12:10;;;;;;;34.92;19.90;;;1.00;99.90;;;;;;5090707;28;20032;-75
2023/03/11 02:14:38;;;;;;;26.70;18.77;;;1.00;99.90;;;;;;5089907;28;20081;-74
2023/03/11 02:17:04;;;;;;;29.77;19.55;;;1.00;99.90;;;;;;5090431;28;20016;-74
2023/03/11 02:19:58;;;;;;;32.20;19.33;;;1.00;99.90;;;;;;5089577;28;20032;-74
2023/03/11 02:22:24;;;;;;;32.13;21.95;;;1.10;99.90;;;;;;5090234;28;20187;-74
2023/03/11 02:25:00;;;;;;;30.80;18.88;;;1.00;99.90;;;;;;5088802;28;20044;-74
2023/03/11 02:27:27;;;;;;;27.98;18.58;;;1.00;99.90;;;;;;5089563;28;20028;-74
2023/03/11 02:29:55;;;;;;;32.08;19.30;;;1.00;99.90;;;;;;5090517;28;20024;-74
2023/03/11 02:32:21;;;;;;;35.33;24.17;;;1.00;99.90;;;;;;5090027;28;20469;-75
2023/03/11 02:34:47;;;;;;;35.90;20.17;;;1.10;99.90;;;;;;5090199;28;20044;-74
2023/03/11 02:37:15;;;;;;;36.25;22.55;;;1.10;99.90;;;;;;5090173;28;20024;-74
2023/03/11 02:39:44;;;;;;;30.88;18.92;;;1.10;99.90;;;;;;5090462;28;20023;-74
2023/03/11 02:42:18;;;;;;;30.17;18.33;;;1.10;99.90;;;;;;5089844;28;20089;-74
2023/03/11 02:44:46;;;;;;;27.52;18.05;;;1.10;99.90;;;;;;5090186;28;20028;-74
2023/03/11 02:47:13;;;;;;;28.35;17.95;;;1.20;99.90;;;;;;5089683;28;20078;-74
2023/03/11 02:49:39;;;;;;;28.52;19.10;;;1.30;99.90;;;;;;5089228;28;20052;-74
2023/03/11 02:52:05;;;;;;;32.60;19.38;;;1.20;99.90;;;;;;5089755;28;20028;-74
2023/03/11 02:54:31;;;;;;;29.48;19.25;;;1.30;99.90;;;;;;5089575;28;20100;-74
2023/03/11 02:56:57;;;;;;;29.88;18.80;;;1.30;99.90;;;;;;5089577;28;20061;-73
2023/03/11 02:59:23;;;;;;;34.13;21.02;;;1.30;99.90;;;;;;5091352;28;20098;-74
2023/03/11 03:01:48;;;;;;;34.40;21.50;;;1.30;99.90;;;;;;5093913;28;20442;-73
2023/03/11 03:04:14;;;;;;;37.95;23.13;;;1.40;99.90;;;;;;5092287;28;20463;-73
2023/03/11 03:06:39;;;;;;;34.90;21.85;;;1.40;99.90;;;;;;5093326;28;20092;-74
2023/03/11 03:09:05;;;;;;;30.92;21.02;;;1.40;99.90;;;;;;5093532;28;20490;-74
2023/03/11 03:11:31;;;;;;;29.40;19.55;;;1.40;99.90;;;;;;5092902;28;20066;-74
2023/03/11 03:13:57;;;;;;;27.85;19.88;;;1.40;99.90;;;;;;5093479;28;20440;-74
2023/03/11 03:16:22;;;;;;;28.77;19.00;;;1.40;99.90;;;;;;5093010;28;20020;-75
2023/03/11 03:18:48;;;;;;;29.45;19.10;;;1.40;99.90;;;;;;5093367;28;20378;-73
2023/03/11 03:21:14;;;;;;;28.48;18.98;;;1.40;99.90;;;;;;5093557;28;20474;-73
2023/03/11 03:23:40;;;;;;;29.33;19.50;;;1.40;99.90;;;;;;5093109;28;20431;-73
2023/03/11 03:26:06;;;;;;;29.90;17.95;;;1.40;99.90;;;;;;5093486;28;20117;-73
2023/03/11 03:28:33;;;;;;;27.55;17.67;;;1.40;99.90;;;;;;5091959;28;20363;-74
2023/03/11 03:31:09;;;;;;;24.77;17.33;;;1.50;99.90;;;;;;5093777;28;20020;-74
2023/03/11 03:33:35;;;;;;;26.00;17.27;;;1.50;99.90;;;;;;5092888;28;20038;-73
2023/03/11 03:36:06;;;;;;;25.02;16.13;;;1.50;99.90;;;;;;5093374;28;20123;-73
2023/03/11 03:38:31;;;;;;;26.95;16.70;;;1.50;99.90;;;;;;5092498;28;20024;-74
2023/03/11 03:40:57;;;;;;;25.95;16.52;;;1.50;99.90;;;;;;5093061;28;20089;-73
2023/03/11 03:43:23;;;;;;;25.20;15.93;;;1.50;99.90;;;;;;5092151;28;20024;-75
2023/03/11 03:46:00;;;;;;;21.23;14.57;;;1.60;99.90;;;;;;5092956;28;20020;-74
2023/03/11 03:48:26;;;;;;;19.27;13.18;;;1.60;99.90;;;;;;5092137;28;20431;-74
2023/03/11 03:50:52;;;;;;;24.48;14.43;;;1.60;99.90;;;;;;5093040;28;20493;-73
2023/03/11 03:53:18;;;;;;;24.02;14.93;;;1.60;99.90;;;;;;5092869;28;20055;-73
2023/03/11 03:55:44;;;;;;;22.85;14.40;;;1.70;99.90;;;;;;5092095;28;20035;-75
2023/03/11 03:58:09;;;;;;;24.50;14.45;;;1.70;99.90;;;;;;5091118;28;20020;-74
2023/03/11 04:00:35;;;;;;;26.83;15.80;;;1.70;99.90;;;;;;5090619;28;20031;-74
2023/03/11 04:03:01;;;;;;;20.77;14.35;;;1.80;99.90;;;;;;5092788;28;20076;-74
2023/03/11 04:05:27;;;;;;;25.80;14.35;;;1.80;99.90;;;;;;5091895;28;20451;-74
2023/03/11 04:07:53;;;;;;;20.55;13.95;;;1.80;99.90;;;;;;5092509;28;20054;-74
2023/03/11 04:10:19;;;;;;;22.70;14.20;;;1.80;99.90;;;;;;5091109;28;20130;-74
2023/03/11 04:12:45;;;;;;;26.55;15.07;;;1.80;99.90;;;;;;5091741;28;20024;-73
2023/03/11 04:15:11;;;;;;;20.38;13.90;;;1.90;99.90;;;;;;5092204;28;20054;-73
2023/03/11 04:17:37;;;;;;;21.45;13.88;;;1.90;99.90;;;;;;5091426;28;20131;-74
2023/03/11 04:20:06;;;;;;;19.42;12.80;;;1.90;99.90;;;;;;5091811;28;20024;-74
2023/03/11 04:22:33;;;;;;;19.88;12.50;;;2.00;99.90;;;;;;5091191;28;20382;-74
2023/03/11 04:24:59;;;;;;;19.33;11.80;;;2.00;99.90;;;;;;5091679;28;20101;-75
2023/03/11 04:27:24;;;;;;;17.90;12.70;;;2.00;99.90;;;;;;5091723;28;20024;-75
2023/03/11 04:29:50;;;;;;;16.38;10.63;;;2.10;99.90;;;;;;5089850;28;20497;-75
2023/03/11 04:32:16;;;;;;;12.20;9.15;;;2.10;99.90;;;;;;5091617;28;20102;-75
2023/03/11 04:34:41;;;;;;;15.07;9.10;;;2.20;99.90;;;;;;5091124;28;20028;-74
2023/03/11 04:37:08;;;;;;;11.30;7.05;;;2.30;99.90;;;;;;5091850;28;20028;-74
2023/03/11 04:39:33;;;;;;;9.18;6.68;;;2.30;99.90;;;;;;5090838;28;20367;-74
2023/03/11 04:41:59;;;;;;;8.43;5.25;;;2.40;99.90;;;;;;5091528;28;20040;-74
2023/03/11 04:44:25;;;;;;;7.30;5.22;;;2.50;99.90;;;;;;5090796;28;20032;-75
2023/03/11 04:46:51;;;;;;;9.45;6.55;;;2.50;99.90;;;;;;5091471;28;20031;-75
2023/03/11 04:49:16;;;;;;;12.77;8.20;;;2.50;99.90;;;;;;5091486;28;20031;-74
2023/03/11 04:51:42;;;;;;;8.88;5.20;;;2.50;99.90;;;;;;5090834;28;20095;-74
2023/03/11 04:54:08;;;;;;;3.97;2.70;;;2.50;99.90;;;;;;5091537;28;20028;-75
2023/03/11 04:56:34;;;;;;;6.85;2.45;;;2.70;99.90;;;;;;5090831;28;20101;-75
2023/03/11 04:59:00;;;;;;;4.80;2.10;;;2.70;99.90;;;;;;5091703;28;20123;-74
2023/03/11 05:01:26;;;;;;;4.90;1.90;;;2.80;99.90;;;;;;5089541;28;20485;-75
2023/03/11 05:03:52;;;;;;;5.07;2.30;;;2.80;99.90;;;;;;5091269;28;20032;-74
2023/03/11 05:06:17;;;;;;;4.72;1.92;;;2.90;99.90;;;;;;5091375;28;20375;-74
2023/03/11 05:08:43;;;;;;;3.53;1.70;;;2.90;99.90;;;;;;5090542;28;20183;-75
2023/03/11 05:11:09;;;;;;;4.20;1.60;;;2.90;99.90;;;;;;5091013;28;20097;-76
2023/03/11 05:13:35;;;;;;;1.70;1.45;;;2.90;99.90;;;;;;5090454;28;20489;-75
2023/03/11 05:16:00;;;;;;;3.85;1.80;;;2.90;99.90;;;;;;5091116;28;20489;-75
2023/03/11 05:18:26;;;;;;;5.20;1.77;;;2.90;99.90;;;;;;5090719;28;20354;-77
2023/03/11 05:20:52;;;;;;;2.42;1.92;;;2.90;99.90;;;;;;5090805;28;20027;-75
2023/03/11 05:23:18;;;;;;;2.83;1.50;;;2.90;99.90;;;;;;5089701;28;20030;-75
2023/03/11 05:25:44;;;;;;;3.30;1.77;;;2.90;99.90;;;;;;5090630;28;20144;-74
2023/03/11 05:28:10;;;;;;;3.78;1.67;;;2.90;99.90;;;;;;5090940;28;20213;-75
2023/03/11 05:30:36;;;;;;;3.40;1.60;;;2.90;99.90;;;;;;5088890;28;20034;-75
2023/03/11 05:33:01;;;;;;;3.80;1.83;;;2.90;99.90;;;;;;5090762;28;20032;-75
2023/03/11 05:35:27;;;;;;;3.33;1.80;;;2.90;99.90;;;;;;5090449;28;20044;-77
2023/03/11 05:37:53;;;;;;;4.18;1.98;;;2.90;99.90;;;;;;5090707;28;20457;-73
2023/03/11 05:40:20;;;;;;;6.13;2.00;;;2.90;99.90;;;;;;5091023;28;20031;-74
2023/03/11 05:42:46;;;;;;;5.90;2.05;;;2.90;99.90;;;;;;5090147;28;20028;-74
2023/03/11 05:45:12;;;;;;;6.65;2.35;;;2.90;99.90;;;;;;5090635;28;20374;-74
2023/03/11 05:47:37;;;;;;;4.82;2.33;;;2.90;99.90;;;;;;5090411;28;20028;-75
2023/03/11 05:50:04;;;;;;;5.25;2.53;;;2.90;99.90;;;;;;5090506;28;20035;-75
2023/03/11 05:52:31;;;;;;;3.33;2.10;;;2.90;99.90;;;;;;5090334;28;20024;-75
2023/03/11 05:54:57;;;;;;;7.10;2.67;;;2.90;99.90;;;;;;5090073;28;20028;-75
2023/03/11 05:57:23;;;;;;;3.25;2.30;;;2.90;99.90;;;;;;5096339;28;20024;-75
2023/03/11 05:59:48;;;;;;;4.50;2.20;;;2.90;99.90;;;;;;5109379;28;20031;-75
2023/03/11 06:02:14;;;;;;;3.95;2.65;;;3.00;99.90;;;;;;5111438;28;20481;-75
2023/03/11 06:04:40;;;;;;;6.65;2.10;;;2.90;99.90;;;;;;5110242;28;20032;-75
2023/03/11 06:07:06;;;;;;;5.95;2.65;;;2.90;99.90;;;;;;5111018;28;20382;-75
2023/03/11 06:09:35;;;;;;;6.07;2.60;;;3.00;99.90;;;;;;5110503;28;20085;-77
2023/03/11 06:12:02;;;;;;;4.55;2.70;;;3.00;99.90;;;;;;5110599;28;20114;-75
2023/03/11 06:14:30;;;;;;;5.10;2.33;;;3.00;99.90;;;;;;5110141;28;20114;-77
2023/03/11 06:16:56;;;;;;;5.75;2.80;;;3.00;99.90;;;;;;5110990;28;20053;-74
2023/03/11 06:19:22;;;;;;;7.15;2.75;;;3.00;99.90;;;;;;5110775;28;20023;-74
2023/03/11 06:21:48;;;;;;;5.45;3.03;;;3.00;99.90;;;;;;5110442;28;20020;-75
2023/03/11 06:24:13;;;;;;;7.43;3.28;;;3.00;99.90;;;;;;5110779;28;20413;-75
2023/03/11 06:26:39;;;;;;;5.22;2.88;;;3.00;99.90;;;;;;5110092;28;20063;-75
2023/03/11 06:29:10;;;;;;;6.75;2.83;;;3.00;99.90;;;;;;5110606;28;20538;-75
2023/03/11 06:31:36;;;;;;;3.90;3.08;;;3.00;99.90;;;;;;5109893;28;20024;-75
2023/03/11 06:34:02;;;;;;;6.53;3.15;;;3.00;99.90;;;;;;5113544;28;20093;-75
2023/03/11 06:36:28;;;;;;;4.95;3.05;;;3.10;99.90;;;;;;5114092;28;20428;-75
2023/03/11 06:38:54;;;;;;;5.55;3.15;;;3.10;99.90;;;;;;5114009;28;20024;-75
2023/03/11 06:41:20;;;;;;;7.28;3.63;;;3.10;99.90;;;;;;5114356;28;20239;-75
2023/03/11 06:43:46;;;;;;;5.82;3.30;;;3.10;99.90;;;;;;5113698;28;20454;-75
2023/03/11 06:46:18;;;;;;;5.35;3.25;;;3.00;99.90;;;;;;5114793;28;20111;-76
2023/03/11 06:48:50;;;;;;;5.90;3.13;;;3.00;99.90;;;;;;5114281;28;20077;-76
2023/03/11 06:51:16;;;;;;;6.47;2.92;;;3.10;99.90;;;;;;5114768;28;20045;-75
2023/03/11 06:53:43;;;;;;;4.78;2.88;;;3.10;99.90;;;;;;5113688;28;20186;-75
2023/03/11 06:56:10;;;;;;;6.20;3.25;;;3.10;99.90;;;;;;5113068;28;20088;-74
2023/03/11 06:58:38;;;;;;;5.47;3.30;;;3.10;99.90;;;;;;5112444;28;20067;-75
2023/03/11 07:01:13;;;;;;;7.90;3.67;;;3.10;99.90;;;;;;5114074;28;20043;-75
2023/03/11 07:03:39;;;;;;;4.57;3.28;;;3.10;99.90;;;;;;5113672;28;20036;-76
2023/03/11 07:06:10;;;;;;;6.47;3.05;;;3.10;99.90;;;;;;5113732;28;20027;-76
2023/03/11 07:08:35;;;;;;;6.22;3.08;;;3.10;99.90;;;;;;5113585;28;20019;-76
2023/03/11 07:11:16;;;;;;;6.32;3.10;;;3.20;99.90;;;;;;5114256;28;20355;-75
2023/03/11 07:13:42;;;;;;;3.85;2.75;;;3.20;99.90;;;;;;5113189;28;20026;-75
2023/03/11 07:16:14;;;;;;;5.72;4.30;;;3.20;99.90;;;;;;5113979;28;20031;-75
2023/03/11 07:18:41;;;;;;;4.78;3.28;;;3.30;99.90;;;;;;5113808;28;20124;-76
2023/03/11 07:21:08;;;;;;;6.38;3.45;;;3.30;99.90;;;;;;5112642;28;20123;-75
2023/03/11 07:23:35;;;;;;;4.30;3.58;;;3.30;99.90;;;;;;5113729;28;20363;-78
2023/03/11 07:26:01;;;;;;;5.75;3.53;;;3.30;99.90;;;;;;5113784;27;20076;-75
2023/03/11 07:28:27;;;;;;;6.88;3.60;;;3.30;99.90;;;;;;5113917;28;20058;-75
2023/03/11 07:30:54;;;;;;;6.35;3.60;;;3.40;99.90;;;;;;5103391;28;20504;-75
2023/03/11 07:33:22;;;;;;;6.45;3.78;;;3.40;99.90;;;;;;5093356;28;20160;-75
2023/03/11 07:35:49;;;;;;;4.72;3.83;;;3.50;99.90;;;;;;5092851;28;20035;-76
2023/03/11 07:38:18;;;;;;;8.82;4.43;;;3.50;99.90;;;;;;5091377;28;20021;-73
2023/03/11 07:40:44;;;;;;;5.57;3.78;;;3.50;99.90;;;;;;5092145;28;20492;-74
2023/03/11 07:43:10;;;;;;;9.40;4.13;;;3.50;99.90;;;;;;5092642;28;20024;-75
2023/03/11 07:45:36;;;;;;;6.38;3.83;;;3.60;99.90;;;;;;5092126;28;20036;-78
2023/03/11 07:48:02;;;;;;;9.75;4.30;;;3.60;99.90;;;;;;5093176;28;20157;-75
2023/03/11 07:50:28;;;;;;;7.60;4.50;;;3.60;99.90;;;;;;5092619;28;20406;-75
2023/03/11 07:52:53;;;;;;;11.50;4.75;;;3.60;99.90;;;;;;5090661;28;20024;-76
2023/03/11 07:55:19;;;;;;;7.63;5.15;;;3.60;99.90;;;;;;5092337;28;20081;-76
2023/03/11 07:57:48;;;;;;;7.85;5.40;;;3.70;99.90;;;;;;5092249;28;20042;-76
2023/03/11 08:00:14;;;;;;;11.80;5.75;;;3.70;99.90;;;;;;5091036;28;20052;-76
2023/03/11 08:02:40;;;;;;;9.98;5.10;;;3.70;99.90;;;;;;5092019;28;20077;-76
2023/03/11 08:05:06;;;;;;;11.40;4.75;;;3.70;99.90;;;;;;5090820;28;20040;-75
2023/03/11 08:07:32;;;;;;;9.50;4.95;;;3.80;99.90;;;;;;5092066;28;20515;-75
2023/03/11 08:09:58;;;;;;;11.48;5.90;;;3.80;99.90;;;;;;5091724;28;20076;-75
2023/03/11 08:12:24;;;;;;;11.10;5.22;;;3.90;99.90;;;;;;5091968;28;20403;-75
2023/03/11 08:14:50;;;;;;;7.25;4.82;;;3.90;99.90;;;;;;5090174;28;20126;-76
2023/03/11 08:17:16;;;;;;;6.97;4.95;;;4.00;99.90;;;;;;5091590;28;20140;-76
2023/03/11 08:19:42;;;;;;;14.10;5.35;;;4.00;99.90;;;;;;5091357;28;20020;-75
2023/03/11 08:22:07;;;;;;;7.75;4.47;;;4.00;99.90;;;;;;5090653;28;20016;-75
2023/03/11 08:24:33;;;;;;;7.82;4.90;;;4.00;99.90;;;;;;5091499;28;20408;-76
2023/03/11 08:26:59;;;;;;;8.65;5.30;;;4.00;99.90;;;;;;5091535;28;20191;-76
2023/03/11 08:29:25;;;;;;;10.32;5.55;;;4.10;99.90;;;;;;5091884;28;20032;-76
2023/03/11 08:31:50;;;;;;;9.98;5.65;;;4.10;99.90;;;;;;5091089;28;20058;-76
2023/03/11 08:34:16;;;;;;;9.95;5.57;;;4.10;99.90;;;;;;5091733;28;20054;-75
2023/03/11 08:36:42;;;;;;;6.13;5.07;;;4.20;99.90;;;;;;5090945;28;20061;-77
2023/03/11 08:39:08;;;;;;;10.82;5.60;;;4.20;99.90;;;;;;5091646;28;20493;-76
2023/03/11 08:41:34;;;;;;;8.95;4.93;;;4.20;99.90;;;;;;5091772;28;20024;-76
2023/03/11 08:44:00;;;;;;;6.53;4.93;;;4.30;99.90;;;;;;5090720;28;20052;-76
2023/03/11 08:46:34;;;;;;;6.68;5.05;;;4.30;99.90;;;;;;5091618;28;20410;-75
2023/03/11 08:49:00;;;;;;;9.13;4.80;;;4.30;99.90;;;;;;5090033;28;20208;-76
2023/03/11 08:51:27;;;;;;;11.73;5.28;;;4.40;99.90;;;;;;5091077;28;20438;-75
2023/03/11 08:53:53;;;;;;;9.85;5.05;;;4.40;99.90;;;;;;5089537;28;20032;-75
2023/03/11 08:56:19;;;;;;;8.07;4.95;;;4.40;99.90;;;;;;5090949;28;20046;-75
2023/03/11 08:58:45;;;;;;;8.15;5.10;;;4.40;99.90;;;;;;5093798;28;20039;-75
2023/03/11 09:01:12;;;;;;;7.43;4.40;;;4.50;99.90;;;;;;5100960;28;20084;-76
2023/03/11 09:03:38;;;;;;;6.75;3.92;;;4.50;99.90;;;;;;5091952;28;20025;-76
2023/03/11 09:06:07;;;;;;;8.63;4.28;;;4.50;99.90;;;;;;5089400;28;20510;-76
2023/03/11 09:08:33;;;;;;;6.78;4.28;;;4.60;99.90;;;;;;5091103;28;20028;-75
2023/03/11 09:10:59;;;;;;;7.18;3.60;;;4.60;99.90;;;;;;5090851;28;20082;-76
2023/03/11 09:13:25;;;;;;;5.07;3.28;;;4.60;99.90;;;;;;5091207;28;20455;-76
2023/03/11 09:15:52;;;;;;;5.90;3.72;;;4.70;99.90;;;;;;5090561;28;20119;-75
2023/03/11 09:18:18;;;;;;;8.27;3.88;;;4.70;99.90;;;;;;5096401;28;20038;-76
2023/03/11 09:20:44;;;;;;;5.72;3.47;;;4.70;99.90;;;;;;5090277;28;20028;-76
2023/03/11 09:23:12;;;;;;;8.77;3.63;;;4.80;99.90;;;;;;5090876;28;20034;-75
2023/03/11 09:25:38;;;;;;;6.93;3.97;;;4.80;99.90;;;;;;5091022;28;20073;-75
2023/03/11 09:28:04;;;;;;;4.07;3.20;;;4.90;99.90;;;;;;5089067;28;20028;-75
2023/03/11 09:30:30;;;;;;;5.88;3.65;;;4.90;99.90;;;;;;5091365;28;20024;-75
2023/03/11 09:32:56;;;;;;;6.88;3.42;;;5.00;99.90;;;;;;5090492;28;20021;-75
2023/03/11 09:35:22;;;;;;;6.65;4.18;;;5.00;99.90;;;;;;5090818;28;20429;-75
2023/03/11 09:37:48;;;;;;;5.30;4.03;;;5.00;99.90;;;;;;5092886;28;20414;-76
2023/03/11 09:40:21;;;;;;;7.80;4.10;;;5.10;99.90;;;;;;5107631;28;20023;-76
2023/03/11 09:43:24;;;;;;;10.15;4.80;;;5.20;99.90;;;;;;5110490;28;20024;-76
2023/03/11 09:45:54;;;;;;;;;;;5.20;99.90;;;;;;5111141;28;20023;-76
2023/03/11 09:48:25;;;;;;;7.65;4.13;;;5.30;99.90;;;;;;5111093;28;19914;-75
2023/03/11 09:50:59;;;;;;;9.40;4.43;;;5.30;99.90;;;;;;5110591;28;20020;-75
2023/03/11 09:53:41;;;;;;;7.07;4.38;;;5.30;99.90;;;;;;5110020;28;20055;-76
2023/03/11 09:56:13;;;;;;;8.77;4.50;;;5.30;99.90;;;;;;5110351;28;20034;-75
2023/03/11 09:58:47;;;;;;;;;;;5.30;99.90;;;;;;5111157;28;20546;-75
2023/03/11 10:01:26;;;;;;;10.82;4.47;;;5.20;99.90;;;;;;5111163;28;20358;-75
2023/03/11 10:03:55;;;;;;;6.35;4.45;;;5.20;99.90;;;;;;5110464;28;20031;-76
2023/03/11 10:06:28;;;;;;;6.57;4.38;;;5.20;99.90;;;;;;5110710;28;20078;-75
2023/03/11 10:09:11;;;;;;;9.73;4.80;;;5.20;99.90;;;;;;5113147;28;20051;-74
2023/03/11 10:11:56;;;;;;;6.40;4.45;;;5.30;99.90;;;;;;5115095;28;20016;-75
2023/03/11 10:14:27;;;;;;;6.97;4.75;;;5.20;99.90;;;;;;5114927;28;20028;-76
2023/03/11 10:17:27;;;;;;;9.60;4.50;;;5.20;99.90;;;;;;5114675;28;20027;-75
2023/03/11 10:20:04;;;;;;;11.63;5.28;;;5.20;99.90;;;;;;5112680;28;20075;-75
2023/03/11 10:22:41;;;;;;;7.70;4.40;;;5.30;99.90;;;;;;5114712;28;20031;-76
2023/03/11 10:25:32;;;;;;;8.18;4.30;;;5.30;99.90;;;;;;5114309;28;20039;-76
2023/03/11 10:28:14;;;;;;;9.70;4.45;;;5.30;99.90;;;;;;5113742;28;20099;-76
2023/03/11 10:30:48;;;;;;;8.27;4.80;;;5.30;99.90;;;;;;5114902;28;20043;-75
2023/03/11 10:33:28;;;;;;;8.00;4.43;;;5.30;99.90;;;;;;5113699;28;20074;-75
2023/03/11 10:35:59;;;;;;;9.18;4.15;;;5.20;99.90;;;;;;5114750;28;20363;-75
2023/03/11 10:38:31;;;;;;;7.25;4.65;;;5.20;99.90;;;;;;5115619;28;20051;-75
2023/03/11 10:41:02;;;;;;;7.85;4.78;;;5.20;99.90;;;;;;5115149;28;20035;-75
2023/03/11 10:43:56;;;;;;;7.55;4.35;;;5.20;99.90;;;;;;5116188;28;20039;-75
2023/03/11 10:46:26;;;;;;;10.98;4.70;;;5.20;99.90;;;;;;5115730;28;20031;-75
2023/03/11 10:48:52;;;;;;;6.47;4.65;;;5.20;99.90;;;;;;5115036;28;20093;-77
2023/03/11 10:51:23;;;;;;;7.03;4.88;;;5.10;99.90;;;;;;5113859;28;20027;-76
2023/03/11 10:53:57;;;;;;;8.20;5.15;;;5.10;99.90;;;;;;5114612;28;20034;-78
2023/03/11 10:56:36;;;;;;;11.15;5.13;;;5.10;99.90;;;;;;5115344;28;20032;-75
2023/03/11 10:59:04;;;;;;;7.90;4.75;;;5.10;99.90;;;;;;5113169;28;20032;-75
2023/03/11 11:01:30;;;;;;;8.18;4.55;;;5.10;99.90;;;;;;5115587;28;20031;-76
2023/03/11 11:03:59;;;;;;;10.43;4.80;;;5.10;99.90;;;;;;5113547;28;20164;-77
2023/03/11 11:06:29;;;;;;;7.68;5.10;;;5.00;99.90;;;;;;5115427;28;20027;-77
2023/03/11 11:09:15;;;;;;;5.93;4.70;;;5.00;99.90;;;;;;5114357;28;20024;-77
2023/03/11 11:12:10;;;;;;;6.43;4.28;;;4.90;99.90;;;;;;5115339;28;20028;-76
2023/03/11 11:14:51;;;;;;;4.70;4.00;;;4.90;99.90;;;;;;5110032;28;20122;-75
2023/03/11 11:17:36;;;;;;;6.72;4.57;;;4.90;99.90;;;;;;5115405;28;20036;-75
2023/03/11 11:20:11;;;;;;;7.88;3.83;;;4.80;99.90;;;;;;5113565;28;20028;-75
2023/03/11 11:22:46;;;;;;;6.35;4.40;;;4.80;99.90;;;;;;5114813;28;20028;-76
2023/03/11 11:25:54;;;;;;;7.18;4.90;;;4.80;99.90;;;;;;5114314;28;20043;-76
2023/03/11 11:28:20;;;;;;;8.05;5.65;;;4.70;99.90;;;;;;5103315;28;20461;-79
2023/03/11 11:30:57;;;;;;;4.65;3.60;;;4.70;99.90;;;;;;5113999;28;20034;-77
2023/03/11 11:33:32;;;;;;;7.13;4.00;;;4.70;99.90;;;;;;5114570;28;20145;-77
2023/03/11 11:36:03;;;;;;;8.18;4.03;;;4.60;99.90;;;;;;5112997;28;20031;-78
2023/03/11 11:38:30;;;;;;;5.80;4.00;;;4.60;99.90;;;;;;5114286;28;20458;-79
2023/03/11 11:41:00;;;;;;;7.72;4.10;;;4.60;99.90;;;;;;5113749;28;20098;-79
2023/03/11 11:44:02;;;;;;;8.07;4.18;;;4.60;99.90;;;;;;5114735;28;20030;-80
2023/03/11 11:46:42;;;;;;;5.47;2.97;;;4.60;99.90;;;;;;5114849;28;20458;-79
2023/03/11 11:49:07;;;;;;;5.43;2.92;;;4.50;99.90;;;;;;5095913;28;20110;-79
2023/03/11 11:52:04;;;;;;;2.40;2.20;;;4.40;99.90;;;;;;5104180;28;20100;-79
2023/03/11 11:54:37;;;;;;;3.72;2.03;;;4.40;99.90;;;;;;5093923;28;20390;-79
2023/03/11 11:57:11;;;;;;;1.95;1.60;;;4.40;99.90;;;;;;5092593;28;20032;-78
2023/03/11 11:59:37;;;;;;;3.60;2.05;;;4.40;99.90;;;;;;5093300;28;20070;-78
2023/03/11 12:02:15;;;;;;;3.45;2.20;;;4.40;99.90;;;;;;5093050;28;20024;-78
2023/03/11 12:05:02;;;;;;;2.40;1.83;;;4.40;99.90;;;;;;5093266;28;20032;-79
2023/03/11 12:07:37;;;;;;;3.42;2.10;;;4.40;99.90;;;;;;5093593;28;20046;-79
2023/03/11 12:10:09;;;;;;;2.10;1.50;;;4.40;99.90;;;;;;5093456;28;20020;-78
2023/03/11 12:13:04;;;;;;;74.70;10.70;;;4.30;99.90;;;;;;5093326;28;20115;-78
2023/03/11 12:15:41;;;;;;;2.53;2.13;;;4.30;99.90;;;;;;5102092;28;20479;-78
2023/03/11 12:18:19;;;;;;;5.45;2.25;;;4.40;99.90;;;;;;5113592;28;20043;-80
2023/03/11 12:20:51;;;;;;;6.55;3.00;;;4.30;99.90;;;;;;5104064;28;20431;-77
2023/03/11 12:23:23;;;;;;;16.70;3.13;;;4.40;99.90;;;;;;5093074;28;20104;-77
2023/03/11 12:25:49;;;;;;;;;;;4.40;99.90;;;;;;5093923;28;20040;-77
2023/03/11 12:28:20;;;;;;;3.67;2.00;;;4.30;99.90;;;;;;5092729;28;20311;-78
2023/03/11 12:31:00;;;;;;;11.00;5.63;;;4.40;99.90;;;;;;5092672;28;20024;-77
2023/03/11 12:33:37;;;;;;;4.60;3.00;;;4.40;99.90;;;;;;5093118;28;20024;-78
2023/03/11 12:36:05;;;;;;;5.20;2.90;;;4.50;99.90;;;;;;5092708;28;20007;-78
2023/03/11 12:38:34;;;;;;;4.85;2.88;;;4.40;99.90;;;;;;5092738;28;20078;-77
2023/03/11 12:41:14;;;;;;;2.53;1.70;;;4.40;99.90;;;;;;5092098;28;20024;-76
2023/03/11 12:43:40;;;;;;;1.88;1.60;;;4.50;99.90;;;;;;5095716;28;20035;-77
2023/03/11 12:46:11;;;;;;;1.95;1.65;;;4.50;99.90;;;;;;5101588;28;20019;-77
2023/03/11 12:48:44;;;;;;;3.10;2.33;;;4.60;99.90;;;;;;5099695;28;20023;-77
2023/03/11 12:51:25;;;;;;;5.13;2.90;;;4.70;99.90;;;;;;5102656;28;20019;-76
2023/03/11 12:53:54;;;;;;;4.10;2.70;;;4.70;99.90;;;;;;5101574;28;20108;-76
2023/03/11 12:56:39;;;;;;;4.82;2.28;;;4.70;99.90;;;;;;5092989;28;20328;-77
2023/03/11 12:59:38;;;;;;;4.55;2.10;;;4.70;99.90;;;;;;5093177;28;20028;-78
2023/03/11 13:02:28;;;;;;;1.98;1.73;;;4.90;99.90;;;;;;5092198;28;20039;-76